Time;durP1;ratioP1;P1;durP2;ratioP2;P2;SDS_P1;SDS_P2;PMS_P1;PMS_P2;Temp;Humidity;BMP_temperature;BMP_pressure;BME280_temperature;BME280_humidity;BME280_pressure;Samples;Min_cycle;Max_cycle;Signal;HPM_P1;HPM_P2
2022/11/29 00:01:45;;;;;;;;;;;8.10;99.90;;;;;;5093382;28;20033;-77
2022/11/29 00:04:11;;;;;;;;;;;8.10;99.90;;;;;;5102253;27;19950;-77
2022/11/29 00:06:38;;;;;;;;;;;8.10;99.90;;;;;;5102618;27;20101;-76
2022/11/29 00:09:07;;;;;;;;;;;8.10;99.90;;;;;;5103398;28;20098;-77
2022/11/29 00:14:19;;;;;;;;;;;8.10;99.90;;;;;;5095965;28;19969;-77
2022/11/29 00:16:49;;;;;;;;;;;8.10;99.90;;;;;;5095425;27;20136;-77
2022/11/29 00:19:16;;;;;;;;;;;8.10;99.90;;;;;;5092231;28;25083;-77
2022/11/29 00:21:43;;;;;;;;;;;8.10;99.90;;;;;;5095221;28;20003;-77
2022/11/29 00:24:11;;;;;;;;;;;8.10;99.90;;;;;;5097603;28;20575;-76
2022/11/29 00:26:37;;;;;;;;;;;8.10;99.90;;;;;;5100977;27;20098;-77
2022/11/29 00:29:04;;;;;;;;;;;8.10;99.90;;;;;;5080792;28;20438;-77
2022/11/29 00:31:31;;;;;;;;;;;8.10;99.90;;;;;;5072720;28;20101;-77
2022/11/29 00:33:58;;;;;;;;;;;8.10;99.90;;;;;;5078205;28;25068;-76
2022/11/29 00:36:25;;;;;;;;;;;8.10;99.90;;;;;;5076323;28;19986;-77
2022/11/29 00:38:52;;;;;;;;;;;8.10;99.90;;;;;;5077912;28;20085;-77
2022/11/29 00:41:20;;;;;;;;;;;8.10;99.90;;;;;;5073049;28;20090;-77
2022/11/29 00:43:46;;;;;;;;;;;8.10;99.90;;;;;;5066127;28;25073;-77
2022/11/29 00:46:13;;;;;;;;;;;8.10;99.90;;;;;;5074376;28;20584;-77
2022/11/29 00:48:39;;;;;;;;;;;8.10;99.90;;;;;;5074171;28;20589;-77
2022/11/29 00:51:06;;;;;;;;;;;8.10;99.90;;;;;;5074410;28;20098;-77
2022/11/29 00:53:33;;;;;;;;;;;8.10;99.90;;;;;;5075419;28;20082;-76
2022/11/29 00:56:00;;;;;;;;;;;8.10;99.90;;;;;;5075200;28;20135;-77
2022/11/29 00:58:28;;;;;;;;;;;8.10;99.90;;;;;;5079309;28;25140;-76
2022/11/29 01:00:55;;;;;;;;;;;8.10;99.90;;;;;;5068698;28;19959;-77
2022/11/29 01:03:22;;;;;;;;;;;8.10;99.90;;;;;;5081285;28;25078;-76
2022/11/29 01:05:48;;;;;;;;;;;8.10;99.90;;;;;;5076886;28;19963;-77
2022/11/29 01:08:16;;;;;;;;;;;8.10;99.90;;;;;;5076483;28;25078;-77
2022/11/29 01:10:42;;;;;;;;;;;8.10;99.90;;;;;;5074322;28;19963;-77
2022/11/29 01:13:09;;;;;;;;;;;8.10;99.90;;;;;;5080612;28;20118;-77
2022/11/29 01:15:37;;;;;;;;;;;8.10;99.90;;;;;;5082326;28;20098;-77
2022/11/29 01:18:04;;;;;;;;;;;8.10;99.90;;;;;;5077955;28;20119;-77
2022/11/29 01:20:31;;;;;;;;;;;8.10;99.90;;;;;;5075012;28;25071;-77
2022/11/29 01:22:58;;;;;;;;;;;8.10;99.90;;;;;;5070653;28;20511;-77
2022/11/29 01:25:24;;;;;;;;;;;8.10;99.90;;;;;;5072595;28;20108;-77
2022/11/29 01:27:51;;;;;;;;;;;8.10;99.90;;;;;;5072235;28;20170;-76
2022/11/29 01:30:17;;;;;;;;;;;8.10;99.90;;;;;;5090607;28;20126;-77
2022/11/29 01:32:45;;;;;;;;;;;8.10;99.90;;;;;;5094290;28;25077;-77
2022/11/29 01:35:12;;;;;;;;;;;8.10;99.90;;;;;;5093851;28;25140;-77
2022/11/29 01:37:38;;;;;;;;;;;8.10;99.90;;;;;;5092925;28;20388;-76
2022/11/29 01:40:06;;;;;;;;;;;8.10;99.90;;;;;;5090660;28;20098;-77
2022/11/29 01:42:32;;;;;;;;;;;8.10;99.90;;;;;;5091175;27;25052;-77
2022/11/29 01:45:04;;;;;;;;;;;8.10;99.90;;;;;;5091495;27;19964;-76
2022/11/29 01:47:31;;;;;;;;;;;8.10;99.90;;;;;;5098606;27;19968;-77
2022/11/29 01:49:59;;;;;;;;;;;8.10;99.90;;;;;;5098316;27;25069;-76
2022/11/29 01:52:28;;;;;;;;;;;8.10;99.90;;;;;;5089219;28;19963;-77
2022/11/29 01:54:57;;;;;;;;;;;8.10;99.90;;;;;;5083932;28;19964;-76
2022/11/29 01:57:24;;;;;;;;;;;8.10;99.90;;;;;;5096619;27;25074;-76
2022/11/29 01:59:53;;;;;;;;;;;8.10;99.90;;;;;;5088373;28;19962;-77
2022/11/29 02:02:21;;;;;;;;;;;8.10;99.90;;;;;;5092702;28;20093;-76
2022/11/29 02:04:49;;;;;;;;;;;8.00;99.90;;;;;;5096654;27;20605;-76
2022/11/29 02:07:17;;;;;;;;;;;8.10;99.90;;;;;;5092982;27;20110;-76
2022/11/29 02:09:43;;;;;;;;;;;8.10;99.90;;;;;;5093144;28;20092;-77
2022/11/29 02:12:16;;;;;;;;;;;8.10;99.90;;;;;;5096939;28;20816;-76
2022/11/29 02:14:52;;;;;;;;;;;8.10;99.90;;;;;;5090789;28;20646;-76
2022/11/29 02:17:24;;;;;;;;;;;8.10;99.90;;;;;;5090500;28;25071;-76
2022/11/29 02:20:10;;;;;;;;;;;8.00;99.90;;;;;;5087654;28;19976;-77
2022/11/29 02:22:41;;;;;;;;;;;8.10;99.90;;;;;;5089109;27;20149;-76
2022/11/29 02:25:17;;;;;;;;;;;8.10;99.90;;;;;;5090510;28;19967;-76
2022/11/29 02:28:03;;;;;;;;;;;8.10;99.90;;;;;;5095120;28;20112;-77
2022/11/29 02:30:52;;;;;;;;;;;8.10;99.90;;;;;;5093131;28;20568;-76
2022/11/29 02:33:37;;;;;;;;;;;8.10;99.90;;;;;;5089407;28;20102;-76
2022/11/29 02:36:30;;;;;;;;;;;8.10;99.90;;;;;;5089815;28;20104;-77
2022/11/29 02:39:07;;;;;;;;;;;8.10;99.90;;;;;;5090398;28;20113;-76
2022/11/29 02:41:41;;;;;;;;;;;8.10;99.90;;;;;;5089640;28;20112;-76
2022/11/29 02:44:32;;;;;;;;;;;8.10;99.90;;;;;;5093946;28;20135;-76
2022/11/29 02:47:05;;;;;;;;;;;8.10;99.90;;;;;;5090501;28;20107;-77
2022/11/29 02:49:41;;;;;;;;;;;8.10;99.90;;;;;;5091465;28;20128;-76
2022/11/29 02:52:12;;;;;;;;;;;8.10;99.90;;;;;;5092603;28;20109;-75
2022/11/29 02:54:44;;;;;;;;;;;8.10;99.90;;;;;;5093675;28;20132;-76
2022/11/29 02:57:14;;;;;;;;;;;8.10;99.90;;;;;;5092160;28;20102;-76
2022/11/29 02:59:46;;;;;;;;;;;8.10;99.90;;;;;;5093328;28;20605;-76
2022/11/29 03:02:20;;;;;;;;;;;8.10;99.90;;;;;;5083233;28;20106;-76
2022/11/29 03:04:49;;;;;;;;;;;8.10;99.90;;;;;;5089581;28;25084;-76
2022/11/29 03:07:23;;;;;;;;;;;8.10;99.90;;;;;;5088261;28;19959;-77
2022/11/29 03:09:55;;;;;;;;;;;8.10;99.90;;;;;;5094014;28;20125;-77
2022/11/29 03:12:33;;;;;;;;;;;8.10;99.90;;;;;;5094974;28;20125;-76
2022/11/29 03:15:05;;;;;;;;;;;8.10;99.90;;;;;;5091962;28;20182;-77
2022/11/29 03:17:38;;;;;;;;;;;8.10;99.90;;;;;;5094388;28;20131;-75
2022/11/29 03:20:15;;;;;;;;;;;8.10;99.90;;;;;;5096452;27;20271;-75
2022/11/29 03:22:47;;;;;;;;;;;8.10;99.90;;;;;;5099080;27;20776;-76
2022/11/29 03:25:19;;;;;;;;;;;8.00;99.90;;;;;;5100361;28;20116;-76
2022/11/29 03:27:50;;;;;;;;;;;8.10;99.90;;;;;;5096584;28;20116;-76
2022/11/29 03:30:18;;;;;;;;;;;8.10;99.90;;;;;;5098478;27;20091;-76
2022/11/29 03:32:48;;;;;;;;;;;8.10;99.90;;;;;;5090192;28;20174;-76
2022/11/29 03:35:17;;;;;;;;;;;8.10;99.90;;;;;;5093296;28;20186;-76
2022/11/29 03:37:49;;;;;;;;;;;8.10;99.90;;;;;;5091609;28;20231;-76
2022/11/29 03:40:17;;;;;;;;;;;8.10;99.90;;;;;;5091575;28;20190;-77
2022/11/29 03:42:48;;;;;;;;;;;8.10;99.90;;;;;;5096498;28;20198;-76
2022/11/29 03:45:18;;;;;;;;;;;8.10;99.90;;;;;;5094622;27;20197;-76
2022/11/29 03:47:51;;;;;;;;;;;8.10;99.90;;;;;;5090220;28;20228;-77
2022/11/29 03:50:20;;;;;;;;;;;8.10;99.90;;;;;;5096189;28;20673;-76
2022/11/29 03:52:50;;;;;;;;;;;8.10;99.90;;;;;;5089292;28;20242;-76
2022/11/29 03:55:24;;;;;;;;;;;8.10;99.90;;;;;;5079334;28;20296;-76
2022/11/29 03:57:59;;;;;;;;;;;8.10;99.90;;;;;;5069811;28;20497;-77
2022/11/29 04:00:27;;;;;;;;;;;8.10;99.90;;;;;;5085911;28;20331;-77
2022/11/29 04:03:13;;;;;;;;;;;8.10;99.90;;;;;;5089362;28;20233;-76
2022/11/29 04:05:47;;;;;;;;;;;8.10;99.90;;;;;;5085957;28;20263;-76
2022/11/29 04:08:28;;;;;;;;;;;8.10;99.90;;;;;;5073621;27;20162;-76
2022/11/29 04:11:13;;;;;;;;;;;8.10;99.90;;;;;;5082315;28;20140;-76
2022/11/29 04:14:00;;;;;;;;;;;8.10;99.90;;;;;;4972086;27;20570;-76
2022/11/29 04:16:50;;;;;;;;;;;8.10;99.90;;;;;;5060401;28;25059;-76
2022/11/29 04:19:38;;;;;;;;;;;8.10;99.90;;;;;;4976167;28;20778;-77
2022/11/29 04:22:16;;;;;;;;;;;8.10;99.90;;;;;;4890648;28;20916;-77
2022/11/29 04:25:10;;;;;;;;;;;8.10;99.90;;;;;;4899551;28;25052;-76
2022/11/29 04:27:47;;;;;;;;;;;8.10;99.90;;;;;;4875368;28;20151;-77
2022/11/29 04:30:16;;;;;;;;;;;8.10;99.90;;;;;;4897227;27;21003;-77
2022/11/29 04:32:53;;;;;;;;;;;8.20;99.90;;;;;;4907476;27;20284;-77
2022/11/29 04:35:29;;;;;;;;;;;8.10;99.90;;;;;;5064366;28;20224;-77
2022/11/29 04:38:11;;;;;;;;;;;8.10;99.90;;;;;;4988766;28;20212;-76
2022/11/29 04:41:03;;;;;;;;;;;8.10;99.90;;;;;;4908386;28;20240;-76
2022/11/29 04:43:39;;;;;;;;;;;8.10;99.90;;;;;;4885505;27;20271;-77
2022/11/29 04:46:36;;;;;;;;;;;8.10;99.90;;;;;;4900935;28;20203;-76
2022/11/29 04:49:15;;;;;;;;;;;8.10;99.90;;;;;;4848792;28;20245;-76
2022/11/29 04:51:50;;;;;;;;;;;8.10;99.90;;;;;;4903254;28;21041;-77
2022/11/29 04:54:20;;;;;;;;;;;8.10;99.90;;;;;;4915211;28;20374;-77
2022/11/29 04:56:48;;;;;;;;;;;8.10;99.90;;;;;;4916773;28;20265;-76
2022/11/29 04:59:20;;;;;;;;;;;8.10;99.90;;;;;;4911235;27;20231;-77
2022/11/29 05:01:53;;;;;;;;;;;8.10;99.90;;;;;;4935921;28;20660;-76
2022/11/29 05:04:23;;;;;;;;;;;8.20;99.90;;;;;;4931751;28;20256;-76
2022/11/29 05:06:54;;;;;;;;;;;8.10;99.90;;;;;;4898804;28;20234;-76
2022/11/29 05:09:24;;;;;;;;;;;8.10;99.90;;;;;;4908725;28;20221;-76
2022/11/29 05:11:59;;;;;;;;;;;8.10;99.90;;;;;;4886506;28;20192;-77
2022/11/29 05:14:35;;;;;;;;;;;8.10;99.90;;;;;;4893032;27;20282;-77
2022/11/29 05:17:08;;;;;;;;;;;8.10;99.90;;;;;;4915117;28;20260;-77
2022/11/29 05:19:49;;;;;;;;;;;8.10;99.90;;;;;;4933047;28;20302;-76
2022/11/29 05:22:29;;;;;;;;;;;8.10;99.90;;;;;;4929886;28;20298;-77
2022/11/29 05:25:00;;;;;;;;;;;8.10;99.90;;;;;;4945653;28;25050;-76
2022/11/29 05:27:31;;;;;;;;;;;8.10;99.90;;;;;;4947089;28;20271;-77
2022/11/29 05:30:02;;;;;;;;;;;8.10;99.90;;;;;;4932387;28;25132;-76
2022/11/29 05:32:34;;;;;;;;;;;8.10;99.90;;;;;;4941438;28;25068;-77
2022/11/29 05:35:19;;;;;;;;;;;8.10;99.90;;;;;;4925891;28;20323;-77
2022/11/29 05:37:48;;;;;;;;;;;8.10;99.90;;;;;;4902340;28;20277;-77
2022/11/29 05:40:25;;;;;;;;;;;8.10;99.90;;;;;;4921500;28;20331;-77
2022/11/29 05:43:01;;;;;;;;;;;8.10;99.90;;;;;;4919235;28;20272;-77
2022/11/29 05:45:33;;;;;;;;;;;8.10;99.90;;;;;;4926156;27;20283;-77
2022/11/29 05:48:02;;;;;;;;;;;8.10;99.90;;;;;;4931472;27;20359;-77
2022/11/29 05:50:33;;;;;;;;;;;8.10;99.90;;;;;;4927421;28;20261;-77
2022/11/29 05:53:04;;;;;;;;;;;8.10;99.90;;;;;;4930330;28;20663;-76
2022/11/29 05:55:37;;;;;;;;;;;8.10;99.90;;;;;;4929310;28;20658;-77
2022/11/29 05:58:08;;;;;;;;;;;8.10;99.90;;;;;;4923421;28;20659;-77
2022/11/29 06:00:41;;;;;;;;;;;8.20;99.90;;;;;;4921819;27;20314;-77
2022/11/29 06:03:12;;;;;;;;;;;8.10;99.90;;;;;;4922677;28;25074;-79
2022/11/29 06:05:45;;;;;;;;;;;8.10;99.90;;;;;;4951021;28;25066;-79
2022/11/29 06:08:16;;;;;;;;;;;8.10;99.90;;;;;;4948975;28;20263;-79
2022/11/29 06:10:52;;;;;;;;;;;8.00;99.90;;;;;;5072781;27;25100;-77
2022/11/29 06:13:21;;;;;;;;;;;8.10;99.90;;;;;;5097923;28;19994;-79
2022/11/29 06:16:04;;;;;;;;;;;8.20;99.90;;;;;;5091797;28;19995;-79
2022/11/29 06:18:40;;;;;;;;;;;8.10;99.90;;;;;;5106359;27;19985;-76
2022/11/29 06:21:15;;;;;;;;;;;8.10;99.90;;;;;;5095682;28;19978;-77
2022/11/29 06:24:00;;;;;;;;;;;8.20;99.90;;;;;;5100799;28;19978;-79
2022/11/29 06:26:38;;;;;;;;;;;8.10;99.90;;;;;;5101560;28;20315;-78
2022/11/29 06:29:18;;;;;;;;;;;8.10;99.90;;;;;;5108648;28;19994;-78
2022/11/29 06:31:47;;;;;;;;;;;8.10;99.90;;;;;;5105321;28;20001;-79
2022/11/29 06:34:20;;;;;;;;;;;8.10;99.90;;;;;;5106167;28;19979;-79
2022/11/29 06:36:50;;;;;;;;;;;8.10;99.90;;;;;;5106921;28;19981;-78
2022/11/29 06:39:17;;;;;;;;;;;8.10;99.90;;;;;;5105404;28;21271;-78
2022/11/29 06:41:44;;;;;;;;;;;8.10;99.90;;;;;;5109263;28;20466;-79
2022/11/29 06:44:11;;;;;;;;;;;8.10;99.90;;;;;;5107436;28;19974;-79
2022/11/29 06:46:44;;;;;;;;;;;8.10;99.90;;;;;;5107719;28;19987;-79
2022/11/29 06:49:17;;;;;;;;;;;8.10;99.90;;;;;;5103642;27;20059;-79
2022/11/29 06:51:48;;;;;;;;;;;8.10;99.90;;;;;;5106371;28;19991;-78
2022/11/29 06:54:31;;;;;;;;;;;8.10;99.90;;;;;;5102510;28;19975;-78
2022/11/29 06:57:04;;;;;;;;;;;8.10;99.90;;;;;;5096423;28;20002;-78
2022/11/29 06:59:37;;;;;;;;;;;8.10;99.90;;;;;;5105519;28;19986;-78
2022/11/29 07:02:10;;;;;;;;;;;8.10;99.90;;;;;;5098310;27;19999;-78
2022/11/29 07:04:46;;;;;;;;;;;8.10;99.90;;;;;;5100397;28;19985;-76
2022/11/29 07:07:14;;;;;;;;;;;8.10;99.90;;;;;;5096870;27;20292;-79
2022/11/29 07:09:41;;;;;;;;;;;8.10;99.90;;;;;;5103844;27;20119;-78
2022/11/29 07:12:08;;;;;;;;;;;8.10;99.90;;;;;;5104510;27;19997;-79
2022/11/29 07:14:35;;;;;;;;;;;8.10;99.90;;;;;;5100433;28;19982;-77
2022/11/29 07:17:06;;;;;;;;;;;8.10;99.90;;;;;;5102635;28;19990;-78
2022/11/29 07:19:36;;;;;;;;;;;8.10;99.90;;;;;;5103690;28;19982;-78
2022/11/29 07:22:08;;;;;;;;;;;8.10;99.90;;;;;;5100949;27;20710;-78
2022/11/29 07:24:41;;;;;;;;;;;8.10;99.90;;;;;;5099475;28;20393;-78
2022/11/29 07:27:10;;;;;;;;;;;8.10;99.90;;;;;;5101395;28;20123;-78
2022/11/29 07:29:39;;;;;;;;;;;8.10;99.90;;;;;;5104344;28;20465;-78
2022/11/29 07:32:10;;;;;;;;;;;8.10;99.90;;;;;;5100727;28;19995;-78
2022/11/29 07:34:40;;;;;;;;;;;8.10;99.90;;;;;;5100571;28;19979;-78
2022/11/29 07:37:14;;;;;;;;;;;8.10;99.90;;;;;;5101883;28;20047;-79
2022/11/29 07:39:43;;;;;;;;;;;8.10;99.90;;;;;;5092112;27;19974;-78
2022/11/29 07:42:15;;;;;;;;;;;8.10;99.90;;;;;;5101544;28;20462;-78
2022/11/29 07:44:45;;;;;;;;;;;8.10;99.90;;;;;;5096628;28;19975;-79
2022/11/29 07:47:12;;;;;;;;;;;8.00;99.90;;;;;;5095151;28;20475;-79
2022/11/29 07:49:39;;;;;;;;;;;8.10;99.90;;;;;;5102075;28;20002;-78
2022/11/29 07:52:06;;;;;;;;;;;8.10;99.90;;;;;;5098761;28;20020;-80
2022/11/29 07:54:33;;;;;;;;;;;8.00;99.90;;;;;;5103451;27;19982;-79
2022/11/29 07:57:00;;;;;;;;;;;8.10;99.90;;;;;;5095788;28;19975;-79
2022/11/29 07:59:27;;;;;;;;;;;8.10;99.90;;;;;;5102380;28;19982;-79
2022/11/29 08:01:53;;;;;;;;;;;8.10;99.90;;;;;;5097997;28;20002;-78
2022/11/29 08:04:20;;;;;;;;;;;8.10;99.90;;;;;;5098520;28;20624;-79
2022/11/29 08:06:46;;;;;;;;;;;8.10;99.90;;;;;;5091094;28;20387;-79
2022/11/29 08:09:13;;;;;;;;;;;8.10;99.90;;;;;;5089874;28;20005;-78
2022/11/29 08:11:41;;;;;;;;;;;8.10;99.90;;;;;;5096247;28;19990;-79
2022/11/29 08:14:07;;;;;;;;;;;8.10;99.90;;;;;;5097379;28;19975;-78
2022/11/29 08:16:34;;;;;;;;;;;8.10;99.90;;;;;;5089138;28;20486;-78
2022/11/29 08:19:01;;;;;;;;;;;8.10;99.90;;;;;;5097815;28;19975;-79
2022/11/29 08:21:27;;;;;;;;;;;8.00;99.90;;;;;;5095773;28;19986;-78
2022/11/29 08:23:54;;;;;;;;;;;8.10;99.90;;;;;;5098011;28;19989;-79
2022/11/29 08:26:21;;;;;;;;;;;8.10;99.90;;;;;;5099835;28;19974;-78
2022/11/29 08:28:51;;;;;;;;;;;8.10;99.90;;;;;;5091884;28;19995;-77
2022/11/29 08:31:19;;;;;;;;;;;8.10;99.90;;;;;;5100704;27;20578;-78
2022/11/29 08:33:46;;;;;;;;;;;8.00;99.90;;;;;;5102693;27;19986;-77
2022/11/29 08:36:16;;;;;;;;;;;8.10;99.90;;;;;;5096161;27;19978;-77
2022/11/29 08:38:43;;;;;;;;;;;8.10;99.90;;;;;;5100041;28;20504;-77
2022/11/29 08:41:10;;;;;;;;;;;8.10;99.90;;;;;;5096570;28;19975;-78
2022/11/29 08:43:37;;;;;;;;;;;8.10;99.90;;;;;;5093486;27;20033;-77
2022/11/29 08:46:05;;;;;;;;;;;8.10;99.90;;;;;;5094467;28;19990;-77
2022/11/29 08:48:31;;;;;;;;;;;8.00;99.90;;;;;;5093715;27;20009;-78
2022/11/29 08:50:58;;;;;;;;;;;8.10;99.90;;;;;;5104356;27;19978;-77
2022/11/29 08:53:43;;;;;;;;;;;8.10;99.90;;;;;;5096892;27;20508;-77
2022/11/29 08:56:10;;;;;;;;;;;8.00;99.90;;;;;;5101279;27;19981;-77
2022/11/29 08:58:37;;;;;;;;;;;8.10;99.90;;;;;;5094715;28;19982;-78
2022/11/29 09:01:06;;;;;;;;;;;8.10;99.90;;;;;;5093707;27;20074;-77
2022/11/29 09:06:17;;;;;;;;;;;8.10;99.90;;;;;;5096152;28;20061;-78
2022/11/29 09:08:44;;;;;;;;;;;8.10;99.90;;;;;;5093307;28;19991;-77
2022/11/29 09:11:12;;;;;;;;;;;8.10;99.90;;;;;;5093521;28;19982;-77
2022/11/29 09:13:39;;;;;;;;;;;8.10;99.90;;;;;;5096254;28;20002;-78
2022/11/29 09:16:09;;;;;;;;;;;8.10;99.90;;;;;;5094517;28;19991;-77
2022/11/29 09:18:36;;;;;;;;;;;8.00;99.90;;;;;;5097756;28;19975;-77
2022/11/29 09:21:04;;;;;;;;;;;8.10;99.90;;;;;;5088565;28;20317;-77
2022/11/29 09:23:31;;;;;;;;;;;8.10;99.90;;;;;;5094735;28;19998;-77
2022/11/29 09:25:58;;;;;;;;;;;8.10;99.90;;;;;;5095940;28;19986;-76
2022/11/29 09:28:24;;;;;;;;;;;8.10;99.90;;;;;;5088969;28;20673;-77
2022/11/29 09:30:51;;;;;;;;;;;8.10;99.90;;;;;;5070732;28;20383;-78
2022/11/29 09:33:18;;;;;;;;;;;8.10;99.90;;;;;;5066650;28;19991;-78
2022/11/29 09:35:45;;;;;;;;;;;8.00;99.90;;;;;;5074566;28;19975;-77
2022/11/29 09:38:12;;;;;;;;;;;8.10;99.90;;;;;;5070368;28;20053;-77
2022/11/29 09:40:42;;;;;;;;;;;8.00;99.90;;;;;;5075086;28;19975;-78
2022/11/29 09:43:17;;;;;;;;;;;8.10;99.90;;;;;;5072716;28;19991;-77
2022/11/29 09:45:45;;;;;;;;;;;8.10;99.90;;;;;;5071363;28;20001;-76
2022/11/29 09:48:35;;;;;;;;;;;8.10;99.90;;;;;;5079567;28;19982;-79
2022/11/29 09:51:09;;;;;;;;;;;8.10;99.90;;;;;;5080927;28;20019;-80
2022/11/29 09:53:43;;;;;;;;;;;8.10;99.90;;;;;;5080032;28;19997;-81
2022/11/29 09:56:14;;;;;;;;;;;8.10;99.90;;;;;;5071802;28;19986;-81
2022/11/29 09:58:42;;;;;;;;;;;8.10;99.90;;;;;;5070556;28;19979;-80
2022/11/29 10:01:12;;;;;;;;;;;8.10;99.90;;;;;;5081623;28;20001;-80
2022/11/29 10:03:40;;;;;;;;;;;8.10;99.90;;;;;;5076919;28;20608;-80
2022/11/29 10:06:12;;;;;;;;;;;8.10;99.90;;;;;;5078915;28;19980;-79
2022/11/29 10:08:41;;;;;;;;;;;8.10;99.90;;;;;;5077233;28;20394;-80
2022/11/29 10:11:16;;;;;;;;;;;8.10;99.90;;;;;;5074028;28;20040;-79
2022/11/29 10:13:45;;;;;;;;;;;8.10;99.90;;;;;;5080448;28;20681;-78
2022/11/29 10:16:14;;;;;;;;;;;8.10;99.90;;;;;;5074531;28;19991;-79
2022/11/29 10:18:43;;;;;;;;;;;8.10;99.90;;;;;;5084349;28;19982;-79
2022/11/29 10:21:14;;;;;;;;;;;8.10;99.90;;;;;;5085974;28;20001;-78
2022/11/29 10:23:43;;;;;;;;;;;8.10;99.90;;;;;;5086949;28;20038;-78
2022/11/29 10:26:11;;;;;;;;;;;8.10;99.90;;;;;;5081682;28;19975;-79
2022/11/29 10:28:37;;;;;;;;;;;8.10;99.90;;;;;;5083800;28;19985;-78
2022/11/29 10:31:08;;;;;;;;;;;8.10;99.90;;;;;;5096314;28;20500;-78
2022/11/29 10:33:36;;;;;;;;;;;8.20;99.90;;;;;;5094641;28;20397;-78
2022/11/29 10:36:05;;;;;;;;;;;8.10;99.90;;;;;;5108484;28;19982;-77
2022/11/29 10:38:33;;;;;;;;;;;8.20;99.90;;;;;;5096971;28;20773;-78
2022/11/29 10:41:03;;;;;;;;;;;8.10;99.90;;;;;;5099270;28;19979;-78
2022/11/29 10:43:30;;;;;;;;;;;8.10;99.90;;;;;;5102463;28;20029;-77
2022/11/29 10:45:57;;;;;;;;;;;8.10;99.90;;;;;;5104033;28;19998;-78
2022/11/29 10:48:27;;;;;;;;;;;8.10;99.90;;;;;;5093867;28;20564;-78
2022/11/29 10:50:54;;;;;;;;;;;8.20;99.90;;;;;;5098585;28;19983;-77
2022/11/29 10:53:23;;;;;;;;;;;8.10;99.90;;;;;;5100285;28;19997;-77
2022/11/29 10:55:54;;;;;;;;;;;8.10;99.90;;;;;;5094345;28;19979;-77
2022/11/29 10:58:24;;;;;;;;;;;8.20;99.90;;;;;;5100786;28;19979;-77
2022/11/29 11:00:52;;;;;;;;;;;8.20;99.90;;;;;;5098688;28;19999;-77
2022/11/29 11:03:27;;;;;;;;;;;8.20;99.90;;;;;;5098807;28;19991;-76
2022/11/29 11:05:58;;;;;;;;;;;8.20;99.90;;;;;;5096407;28;20370;-77
2022/11/29 11:08:25;;;;;;;;;;;8.20;99.90;;;;;;5093368;28;20488;-76
2022/11/29 11:10:54;;;;;;;;;;;8.20;99.90;;;;;;5099477;28;20027;-76
2022/11/29 11:13:21;;;;;;;;;;;8.20;99.90;;;;;;5097744;28;20007;-76
2022/11/29 11:15:48;;;;;;;;;;;8.20;99.90;;;;;;5099457;28;19991;-77
2022/11/29 11:18:19;;;;;;;;;;;8.20;99.90;;;;;;5095827;28;19982;-76
2022/11/29 11:20:51;;;;;;;;;;;8.20;99.90;;;;;;5101179;28;19982;-77
2022/11/29 11:23:23;;;;;;;;;;;8.20;99.90;;;;;;5096284;28;19991;-77
2022/11/29 11:25:55;;;;;;;;;;;8.20;99.90;;;;;;5103279;28;19975;-78
2022/11/29 11:28:25;;;;;;;;;;;8.20;99.90;;;;;;5103457;28;19974;-79
2022/11/29 11:30:52;;;;;;;;;;;8.20;99.90;;;;;;5105855;28;20001;-78
2022/11/29 11:33:20;;;;;;;;;;;8.20;99.90;;;;;;5108647;27;20017;-78
2022/11/29 11:36:00;;;;;;;;;;;8.20;99.90;;;;;;5109789;27;20012;-78
2022/11/29 11:38:26;;;;;;;;;;;8.20;99.90;;;;;;5106944;27;20002;-78
2022/11/29 11:41:01;;;;;;;;;;;8.20;99.90;;;;;;5097158;27;19983;-78
2022/11/29 11:43:29;;;;;;;;;;;8.20;99.90;;;;;;5101637;28;19994;-78
2022/11/29 11:45:55;;;;;;;;;;;8.20;99.90;;;;;;5104224;28;20002;-79
2022/11/29 11:48:22;;;;;;;;;;;8.30;99.90;;;;;;5101538;28;20634;-78
2022/11/29 11:50:51;;;;;;;;;;;8.20;99.90;;;;;;5103612;28;19991;-79
2022/11/29 11:53:20;;;;;;;;;;;8.20;99.90;;;;;;5104995;28;20457;-78
2022/11/29 11:55:54;;;;;;;;;;;8.30;99.90;;;;;;5105302;27;19979;-77
2022/11/29 11:58:22;;;;;;;;;;;8.20;99.90;;;;;;5106709;27;20805;-78
2022/11/29 12:00:51;;;;;;;;;;;8.30;99.90;;;;;;5105479;27;19991;-78
2022/11/29 12:03:25;;;;;;;;;;;8.30;99.90;;;;;;5101980;28;19990;-78
2022/11/29 12:05:53;;;;;;;;;;;8.30;99.90;;;;;;5099262;28;19983;-78
2022/11/29 12:08:21;;;;;;;;;;;8.30;99.90;;;;;;5103424;28;20370;-78
2022/11/29 12:10:50;;;;;;;;;;;8.30;99.90;;;;;;5104976;28;19998;-78
2022/11/29 12:13:19;;;;;;;;;;;8.30;99.90;;;;;;5109772;27;20005;-79
2022/11/29 12:15:48;;;;;;;;;;;8.30;99.90;;;;;;5104155;28;19991;-77
2022/11/29 12:18:20;;;;;;;;;;;8.40;99.90;;;;;;5101369;28;19975;-78
2022/11/29 12:20:50;;;;;;;;;;;8.30;99.90;;;;;;5110020;28;19982;-78
2022/11/29 12:23:23;;;;;;;;;;;8.30;99.90;;;;;;5109339;28;19991;-78
2022/11/29 12:25:51;;;;;;;;;;;8.30;99.90;;;;;;5105446;28;19982;-78
2022/11/29 12:28:19;;;;;;;;;;;8.40;99.90;;;;;;5101073;27;19979;-78
2022/11/29 12:30:51;;;;;;;;;;;8.30;99.90;;;;;;5078646;28;20000;-78
2022/11/29 12:33:25;;;;;;;;;;;8.40;99.90;;;;;;5079929;28;20002;-78
2022/11/29 12:35:58;;;;;;;;;;;8.40;99.90;;;;;;5079922;28;19974;-78
2022/11/29 12:38:29;;;;;;;;;;;8.40;99.90;;;;;;5080601;28;20001;-78
2022/11/29 12:40:59;;;;;;;;;;;8.40;99.90;;;;;;5082107;28;19986;-78
2022/11/29 12:43:30;;;;;;;;;;;8.40;99.90;;;;;;5085114;28;20018;-78
2022/11/29 12:46:08;;;;;;;;;;;9.00;99.90;;;;;;5082935;28;20105;-78
2022/11/29 12:48:41;;;;;;;;;;;8.40;99.90;;;;;;5086962;28;19975;-78
2022/11/29 12:51:12;;;;;;;;;;;8.40;99.90;;;;;;5084525;28;19991;-77
2022/11/29 12:53:55;;;;;;;;;;;8.40;99.90;;;;;;5083993;28;20457;-78
2022/11/29 12:56:25;;;;;;;;;;;8.40;99.90;;;;;;5084869;28;19986;-78
2022/11/29 12:59:05;;;;;;;;;;;8.40;99.90;;;;;;5082093;28;19982;-78
2022/11/29 13:01:35;;;;;;;;;;;8.40;99.90;;;;;;5081876;28;20019;-78
2022/11/29 13:04:09;;;;;;;;;;;8.40;99.90;;;;;;5090628;28;19975;-78
2022/11/29 13:06:41;;;;;;;;;;;8.40;99.90;;;;;;5087529;28;19983;-78
2022/11/29 13:09:15;;;;;;;;;;;8.40;99.90;;;;;;5083637;28;20378;-77
2022/11/29 13:11:43;;;;;;;;;;;8.40;99.90;;;;;;5081068;28;19999;-78
2022/11/29 13:14:14;;;;;;;;;;;8.40;99.90;;;;;;5083787;28;19975;-76
2022/11/29 13:16:46;;;;;;;;;;;8.40;99.90;;;;;;5076171;28;19991;-78
2022/11/29 13:19:18;;;;;;;;;;;8.40;99.90;;;;;;5082561;28;19975;-78
2022/11/29 13:21:46;;;;;;;;;;;8.40;99.90;;;;;;5085516;28;20006;-77
2022/11/29 13:24:16;;;;;;;;;;;8.40;99.90;;;;;;5083530;28;19975;-77
2022/11/29 13:26:43;;;;;;;;;;;8.40;99.90;;;;;;5084806;28;19986;-77
2022/11/29 13:29:13;;;;;;;;;;;8.40;99.90;;;;;;5093537;28;19985;-77
2022/11/29 13:31:40;;;;;;;;;;;8.40;99.90;;;;;;5101868;28;20002;-78
2022/11/29 13:34:09;;;;;;;;;;;8.40;99.90;;;;;;5099070;28;20007;-77
2022/11/29 13:36:43;;;;;;;;;;;8.40;99.90;;;;;;5096442;28;19975;-77
2022/11/29 13:39:17;;;;;;;;;;;8.40;99.90;;;;;;5090298;28;21469;-77
2022/11/29 13:41:47;;;;;;;;;;;8.40;99.90;;;;;;5090267;28;20005;-77
2022/11/29 13:44:17;;;;;;;;;;;8.50;99.90;;;;;;5099525;28;19975;-76
2022/11/29 13:46:46;;;;;;;;;;;8.50;99.90;;;;;;5092922;28;19998;-77
2022/11/29 13:49:20;;;;;;;;;;;8.40;99.90;;;;;;5099374;27;19985;-77
2022/11/29 13:51:48;;;;;;;;;;;8.50;99.90;;;;;;5099338;28;19998;-77
2022/11/29 13:54:28;;;;;;;;;;;8.50;99.90;;;;;;5090378;28;20422;-77
2022/11/29 13:57:01;;;;;;;;;;;8.50;99.90;;;;;;5090434;28;19978;-77
2022/11/29 13:59:29;;;;;;;;;;;8.50;99.90;;;;;;5095092;28;20022;-77
2022/11/29 14:01:57;;;;;;;;;;;8.40;99.90;;;;;;5099103;27;20018;-78
2022/11/29 14:04:25;;;;;;;;;;;8.50;99.90;;;;;;5103034;28;20024;-77
2022/11/29 14:07:03;;;;;;;;;;;8.50;99.90;;;;;;5092509;28;19978;-77
2022/11/29 14:09:32;;;;;;;;;;;8.50;99.90;;;;;;5100674;28;19971;-77
2022/11/29 14:12:04;;;;;;;;;;;8.50;99.90;;;;;;5095281;28;19990;-76
2022/11/29 14:14:33;;;;;;;;;;;8.50;99.90;;;;;;5101621;28;19975;-77
2022/11/29 14:17:01;;;;;;;;;;;8.50;99.90;;;;;;5104004;28;19991;-79
2022/11/29 14:19:29;;;;;;;;;;;8.50;99.90;;;;;;5108546;28;19975;-79
2022/11/29 14:22:30;;;;;;;;;;;8.50;99.90;;;;;;5107986;27;19994;-79
2022/11/29 14:25:21;;;;;;;;;;;8.50;99.90;;;;;;5100392;28;20058;-79
2022/11/29 14:27:55;;;;;;;;;;;8.50;99.90;;;;;;5102802;28;20001;-79
2022/11/29 14:30:55;;;;;;;;;;;8.50;99.90;;;;;;5101537;28;20035;-79
2022/11/29 14:33:46;;;;;;;;;;;8.50;99.90;;;;;;5026797;28;20015;-78
2022/11/29 14:36:21;;;;;;;;;;;8.50;99.90;;;;;;5027881;28;20483;-79
2022/11/29 14:38:53;;;;;;;;;;;8.60;99.90;;;;;;5076086;28;19981;-79
2022/11/29 14:41:25;;;;;;;;;;;8.50;99.90;;;;;;5102380;28;19986;-79
2022/11/29 14:44:03;;;;;;;;;;;8.50;99.90;;;;;;5098125;28;19981;-79
2022/11/29 14:46:31;;;;;;;;;;;8.50;99.90;;;;;;5096878;28;19997;-78
2022/11/29 14:48:59;;;;;;;;;;;8.50;99.90;;;;;;5102363;28;20488;-77
2022/11/29 14:51:26;;;;;;;;;;;8.50;99.90;;;;;;5102122;28;20412;-79
2022/11/29 14:54:03;;;;;;;;;;;8.50;99.90;;;;;;5100834;28;19979;-78
2022/11/29 14:56:42;;;;;;;;;;;8.50;99.90;;;;;;5099892;28;19983;-78
2022/11/29 14:59:27;;;;;;;;;;;8.50;99.90;;;;;;5105256;28;19974;-78
2022/11/29 15:01:54;;;;;;;;;;;8.50;99.90;;;;;;5098482;28;20002;-79